Time;durP1;ratioP1;P1;durP2;ratioP2;P2;SDS_P1;SDS_P2;PMS_P1;PMS_P2;Temp;Humidity;BMP_temperature;BMP_pressure;BME280_temperature;BME280_humidity;BME280_pressure;Samples;Min_cycle;Max_cycle;Signal;HPM_P1;HPM_P2
2022/11/20 00:01:53;;;;;;;6.53;2.55;;;;;;;9.51;36.18;101749.38;4943237;28;20042;-72
2022/11/20 00:04:22;;;;;;;6.70;2.85;;;;;;;9.47;36.23;101752.59;4938435;28;20056;-73
2022/11/20 00:06:50;;;;;;;8.02;2.95;;;;;;;9.38;34.86;101753.03;4944180;28;20497;-74
2022/11/20 00:09:21;;;;;;;7.03;2.63;;;;;;;9.31;34.75;101759.56;4950065;28;20047;-73
2022/11/20 00:11:50;;;;;;;4.90;2.22;;;;;;;9.23;35.86;101753.13;4950575;28;20054;-75
2022/11/20 00:14:20;;;;;;;4.95;2.30;;;;;;;9.12;36.15;101754.28;4950345;28;20155;-76
2022/11/20 00:16:49;;;;;;;6.15;2.40;;;;;;;9.01;38.04;101757.19;4949312;28;20126;-75
2022/11/20 00:19:20;;;;;;;6.10;2.45;;;;;;;8.87;37.04;101750.44;4952231;28;20102;-74
2022/11/20 00:21:51;;;;;;;5.78;2.15;;;;;;;8.76;36.34;101756.72;4948440;28;20042;-72
2022/11/20 00:24:19;;;;;;;5.15;2.58;;;;;;;8.68;36.32;101760.56;4948277;28;20698;-70
2022/11/20 00:26:48;;;;;;;9.95;2.78;;;;;;;8.57;36.84;101758.31;4953056;28;20058;-69
2022/11/20 00:29:17;;;;;;;6.82;2.58;;;;;;;8.47;37.21;101756.03;4950105;28;20497;-69
2022/11/20 00:31:47;;;;;;;3.90;2.60;;;;;;;8.39;37.01;101762.47;4947558;28;20597;-70
2022/11/20 00:34:16;;;;;;;4.57;2.63;;;;;;;8.26;39.25;101760.00;4944923;28;20062;-70
2022/11/20 00:36:44;;;;;;;3.00;2.50;;;;;;;8.13;37.62;101759.34;4950872;28;20062;-69
2022/11/20 00:39:13;;;;;;;4.57;2.33;;;;;;;8.01;37.13;101757.75;4949935;28;20055;-71
2022/11/20 00:41:42;;;;;;;4.68;2.70;;;;;;;7.89;37.96;101758.84;4948868;28;20489;-70
2022/11/20 00:44:10;;;;;;;7.15;2.90;;;;;;;7.80;38.48;101757.44;4945804;28;20243;-70
2022/11/20 00:46:39;;;;;;;5.20;2.47;;;;;;;7.68;38.79;101758.53;4949576;28;20056;-70
2022/11/20 00:49:09;;;;;;;5.80;3.08;;;;;;;7.58;38.99;101766.50;4947874;28;20062;-70
2022/11/20 00:51:38;;;;;;;5.63;3.13;;;;;;;7.48;39.30;101770.25;4945949;28;20055;-69
2022/11/20 00:54:07;;;;;;;5.55;3.00;;;;;;;7.40;38.96;101773.16;4950692;28;20132;-68
2022/11/20 00:56:38;;;;;;;6.43;3.25;;;;;;;7.33;40.43;101777.09;4947338;28;20047;-69
2022/11/20 00:59:07;;;;;;;9.70;3.65;;;;;;;7.25;39.63;101784.34;4950055;28;20055;-68
2022/11/20 01:01:37;;;;;;;3.45;2.22;;;;;;;7.17;40.59;101785.59;4945946;28;20048;-69
2022/11/20 01:04:08;;;;;;;5.63;3.03;;;;;;;7.07;39.72;101784.13;4945282;28;20051;-70
2022/11/20 01:06:38;;;;;;;4.70;2.58;;;;;;;7.00;39.86;101783.69;4950520;28;20055;-69
2022/11/20 01:09:09;;;;;;;5.30;2.35;;;;;;;6.92;40.08;101776.38;4952353;28;20047;-69
2022/11/20 01:11:40;;;;;;;6.22;3.10;;;;;;;6.85;40.55;101776.81;4953309;28;20134;-70
2022/11/20 01:14:12;;;;;;;7.88;3.53;;;;;;;6.67;41.07;101765.41;4947910;28;20058;-71
2022/11/20 01:16:42;;;;;;;9.80;3.65;;;;;;;6.69;41.51;101792.13;4945135;28;20215;-69
2022/11/20 01:19:14;;;;;;;8.88;3.50;;;;;;;6.60;40.94;101786.41;4950995;28;20699;-71
2022/11/20 01:21:46;;;;;;;7.18;3.15;;;;;;;6.54;41.44;101797.19;4949790;28;20053;-71
2022/11/20 01:24:17;;;;;;;5.95;2.40;;;;;;;6.50;40.62;101797.78;4948536;28;20043;-71
2022/11/20 01:26:48;;;;;;;12.18;2.95;;;;;;;6.46;41.97;101801.84;4947530;28;20047;-71
2022/11/20 01:29:19;;;;;;;5.93;2.88;;;;;;;6.42;41.90;101799.00;4946051;28;20053;-70
2022/11/20 01:31:48;;;;;;;5.47;2.60;;;;;;;6.39;41.69;101791.06;4948472;28;20075;-71
2022/11/20 01:34:23;;;;;;;8.40;3.17;;;;;;;6.33;41.84;101799.28;4945221;28;20063;-71
2022/11/20 01:36:53;;;;;;;7.82;3.30;;;;;;;6.26;42.80;101794.56;4945994;28;20059;-71
2022/11/20 01:39:23;;;;;;;6.75;3.40;;;;;;;6.22;43.20;101802.84;4947330;28;20052;-71
2022/11/20 01:44:56;;;;;;;7.70;3.10;;;;;;;6.10;42.73;101802.09;4944147;28;20138;-71
2022/11/20 01:47:31;;;;;;;7.15;3.30;;;;;;;6.06;42.71;101801.88;4944660;28;20059;-70
2022/11/20 01:50:06;;;;;;;7.18;3.03;;;;;;;6.07;43.42;101803.66;4940839;28;20055;-70
2022/11/20 01:52:39;;;;;;;6.43;2.85;;;;;;;6.06;42.84;101796.72;4955170;28;20047;-72
2022/11/20 01:55:14;;;;;;;11.18;3.03;;;;;;;5.99;43.04;101814.22;4944504;28;20056;-71
2022/11/20 01:57:43;;;;;;;6.00;3.03;;;;;;;5.97;43.22;101821.81;4948169;28;20074;-71
2022/11/20 02:00:14;;;;;;;6.68;3.03;;;;;;;5.93;42.74;101819.81;4944034;28;20043;-72
2022/11/20 02:02:48;;;;;;;6.90;3.38;;;;;;;5.87;43.23;101829.72;4949466;28;20059;-72
2022/11/20 02:05:24;;;;;;;7.55;3.20;;;;;;;5.85;42.73;101828.72;4950090;28;20047;-72
2022/11/20 02:07:54;;;;;;;6.43;2.72;;;;;;;5.83;42.27;101832.84;4948023;28;20051;-72
2022/11/20 02:10:27;;;;;;;6.93;2.58;;;;;;;5.83;43.55;101840.56;4948802;28;20047;-69
2022/11/20 02:15:42;;;;;;;5.18;2.83;;;;;;;5.81;44.22;101840.44;4943371;28;20058;-70
2022/11/20 02:18:13;;;;;;;8.52;3.47;;;;;;;5.78;43.41;101839.38;4946000;28;20127;-70
2022/11/20 02:20:45;;;;;;;5.93;2.75;;;;;;;5.76;43.38;101840.94;4946270;28;20055;-70
2022/11/20 02:23:18;;;;;;;6.70;2.67;;;;;;;5.72;43.80;101844.09;4946980;28;20047;-70
2022/11/20 02:25:49;;;;;;;6.97;2.92;;;;;;;5.67;44.84;101836.09;4944320;28;20706;-69
2022/11/20 02:28:19;;;;;;;7.85;3.72;;;;;;;5.60;44.41;101834.78;4944181;28;20062;-70
2022/11/20 02:30:48;;;;;;;5.93;2.95;;;;;;;5.53;43.52;101829.16;4949253;28;20051;-70
2022/11/20 02:33:17;;;;;;;5.38;2.63;;;;;;;5.47;44.26;101832.19;4945468;28;20057;-70
2022/11/20 02:35:47;;;;;;;8.35;3.88;;;;;;;5.43;44.29;101833.66;4938299;28;20055;-71
2022/11/20 02:38:17;;;;;;;5.55;2.90;;;;;;;5.40;44.53;101836.00;4937621;28;20040;-71
2022/11/20 02:40:45;;;;;;;9.93;3.53;;;;;;;5.34;44.93;101832.16;4940253;28;20051;-70
2022/11/20 02:43:18;;;;;;;6.72;3.10;;;;;;;5.18;44.98;101827.66;4947665;28;20055;-71
2022/11/20 02:45:48;;;;;;;8.88;3.22;;;;;;;5.13;45.61;101834.13;4949111;28;20130;-70
2022/11/20 02:48:17;;;;;;;6.93;3.92;;;;;;;5.10;45.64;101834.81;4955493;28;20529;-71
2022/11/20 02:50:45;;;;;;;8.70;3.67;;;;;;;5.06;45.15;101837.94;4948991;28;20049;-70
2022/11/20 02:53:14;;;;;;;7.70;3.45;;;;;;;4.99;45.76;101835.75;4948418;28;20044;-70
2022/11/20 02:55:43;;;;;;;12.07;3.60;;;;;;;4.93;45.65;101830.22;4946444;28;20047;-71
2022/11/20 02:58:12;;;;;;;7.25;3.35;;;;;;;4.86;45.68;101843.41;4945718;28;20052;-71
2022/11/20 03:00:42;;;;;;;7.53;3.25;;;;;;;4.83;46.36;101846.59;4946459;28;20063;-71
2022/11/20 03:03:11;;;;;;;7.50;3.70;;;;;;;4.79;46.32;101853.22;4947167;28;20054;-69
2022/11/20 03:05:39;;;;;;;10.45;4.43;;;;;;;4.77;47.35;101852.22;4944225;28;20063;-70
2022/11/20 03:08:08;;;;;;;5.40;3.38;;;;;;;4.76;47.72;101855.53;4949380;28;20048;-70
2022/11/20 03:10:37;;;;;;;10.73;3.13;;;;;;;4.76;47.35;101850.41;4946710;28;20043;-70
2022/11/20 03:13:06;;;;;;;6.95;3.53;;;;;;;4.75;47.80;101855.44;4946263;28;20047;-70
2022/11/20 03:15:34;;;;;;;7.28;3.45;;;;;;;4.73;47.74;101854.44;4951192;28;20058;-68
2022/11/20 03:18:05;;;;;;;7.32;3.05;;;;;;;4.71;47.48;101854.34;4948556;28;20540;-68
2022/11/20 03:20:36;;;;;;;6.55;2.58;;;;;;;4.69;46.54;101855.88;4943018;28;20039;-70
2022/11/20 03:23:05;;;;;;;7.70;3.55;;;;;;;4.68;46.74;101858.38;4944949;28;20537;-70
2022/11/20 03:25:34;;;;;;;6.95;3.88;;;;;;;4.68;46.96;101869.50;4948812;28;20047;-70
2022/11/20 03:28:02;;;;;;;6.25;3.17;;;;;;;4.68;47.67;101864.38;4943953;28;20055;-69
2022/11/20 03:30:31;;;;;;;7.32;3.42;;;;;;;4.65;47.65;101869.31;4947513;28;20040;-70
2022/11/20 03:33:00;;;;;;;8.98;3.47;;;;;;;4.66;46.48;101875.31;4946242;28;20057;-70
2022/11/20 03:35:30;;;;;;;6.68;3.05;;;;;;;4.64;46.83;101867.50;4949088;28;20062;-70
2022/11/20 03:38:00;;;;;;;7.10;3.47;;;;;;;4.64;47.18;101877.75;4945774;28;20140;-70
2022/11/20 03:40:28;;;;;;;7.18;3.45;;;;;;;4.62;48.26;101880.19;4947459;28;20402;-70
2022/11/20 03:42:57;;;;;;;7.47;3.38;;;;;;;4.58;48.31;101883.34;4947279;28;20078;-70
2022/11/20 03:45:26;;;;;;;4.82;2.60;;;;;;;4.57;48.68;101888.34;4947269;28;20106;-70
2022/11/20 03:47:54;;;;;;;6.38;2.90;;;;;;;4.57;47.22;101901.16;4941270;28;20051;-70
2022/11/20 03:50:23;;;;;;;7.38;3.45;;;;;;;4.56;47.36;101901.97;4952460;28;20051;-70
2022/11/20 03:52:53;;;;;;;9.10;4.07;;;;;;;4.54;47.25;101895.84;4952046;28;20047;-70
2022/11/20 03:55:22;;;;;;;8.55;3.15;;;;;;;4.52;48.36;101899.97;4951319;28;20066;-71
2022/11/20 03:57:51;;;;;;;7.55;3.70;;;;;;;4.52;47.71;101897.41;4944630;28;20130;-70
2022/11/20 04:00:20;;;;;;;11.07;3.40;;;;;;;4.50;48.51;101893.81;4947846;28;20047;-69
2022/11/20 04:02:48;;;;;;;3.95;2.28;;;;;;;4.48;47.59;101891.13;4951069;28;20088;-69
2022/11/20 04:05:17;;;;;;;5.07;2.63;;;;;;;4.48;47.80;101885.13;4951049;28;20047;-70
2022/11/20 04:07:46;;;;;;;7.25;2.83;;;;;;;4.49;46.87;101892.94;4949913;28;20059;-71
2022/11/20 04:10:19;;;;;;;7.70;3.47;;;;;;;4.43;48.78;101882.25;4949835;28;20047;-70
2022/11/20 04:12:48;;;;;;;5.40;2.65;;;;;;;4.46;49.01;101887.56;4946469;28;20035;-69
2022/11/20 04:15:16;;;;;;;6.72;3.50;;;;;;;4.44;48.72;101884.00;4943529;28;20128;-69
2022/11/20 04:17:45;;;;;;;8.18;3.65;;;;;;;4.41;48.86;101889.81;4946976;28;20055;-70
2022/11/20 04:20:14;;;;;;;5.45;2.88;;;;;;;4.39;47.89;101891.34;4947036;28;20058;-70
2022/11/20 04:22:43;;;;;;;7.93;3.13;;;;;;;4.36;47.59;101895.38;4949926;28;20047;-70
2022/11/20 04:25:11;;;;;;;6.35;2.78;;;;;;;4.28;47.98;101896.50;4948334;28;20089;-70
2022/11/20 04:27:42;;;;;;;5.85;2.95;;;;;;;4.29;49.68;101908.53;4945002;28;20062;-70
2022/11/20 04:30:11;;;;;;;6.13;3.42;;;;;;;4.26;48.38;101908.28;4954610;28;20130;-70
2022/11/20 04:32:40;;;;;;;8.30;3.40;;;;;;;4.23;49.32;101908.97;4948017;28;20051;-70
2022/11/20 04:35:09;;;;;;;7.60;3.00;;;;;;;4.21;50.42;101910.53;4952794;28;20513;-70
2022/11/20 04:37:38;;;;;;;6.18;3.50;;;;;;;4.17;49.80;101911.09;4949220;28;20070;-71
2022/11/20 04:40:07;;;;;;;6.70;2.97;;;;;;;4.16;50.39;101919.53;4955432;28;20065;-71
2022/11/20 04:42:39;;;;;;;8.50;3.50;;;;;;;4.12;50.18;101926.13;4949948;28;20054;-72
2022/11/20 04:45:10;;;;;;;10.45;4.05;;;;;;;4.09;48.97;101923.31;4943705;28;20136;-71
2022/11/20 04:47:39;;;;;;;8.52;4.18;;;;;;;4.07;49.17;101929.09;4951256;28;20042;-71
2022/11/20 04:50:08;;;;;;;7.53;2.97;;;;;;;4.02;49.49;101928.75;4952272;28;20090;-71
2022/11/20 04:52:37;;;;;;;7.72;3.92;;;;;;;3.96;49.09;101925.72;4952117;28;20081;-71
2022/11/20 04:55:09;;;;;;;9.18;4.43;;;;;;;3.89;49.54;101923.50;4948431;28;20057;-70
2022/11/20 04:57:38;;;;;;;9.70;3.83;;;;;;;3.78;49.98;101917.59;4950666;28;20055;-69
2022/11/20 05:00:10;;;;;;;7.65;3.78;;;;;;;3.78;50.37;101918.47;4951004;28;20047;-71
2022/11/20 05:02:38;;;;;;;7.47;3.45;;;;;;;3.73;50.06;101918.88;4942714;28;20130;-70
2022/11/20 05:05:07;;;;;;;10.40;3.58;;;;;;;3.62;51.24;101909.50;4945738;28;20067;-71
2022/11/20 05:07:36;;;;;;;9.55;4.05;;;;;;;3.64;49.99;101925.88;4948316;28;20529;-72
2022/11/20 05:10:05;;;;;;;8.60;4.35;;;;;;;3.53;50.09;101925.06;4953390;28;20047;-71
2022/11/20 05:12:34;;;;;;;8.27;4.10;;;;;;;3.46;49.93;101925.34;4947519;28;20053;-71
2022/11/20 05:15:03;;;;;;;9.20;3.80;;;;;;;3.42;50.41;101931.03;4950687;28;20070;-71
2022/11/20 05:17:33;;;;;;;10.27;4.80;;;;;;;3.38;50.81;101936.69;4949676;28;20143;-71
2022/11/20 05:20:02;;;;;;;12.65;4.63;;;;;;;3.35;50.37;101929.66;4945265;28;20521;-72
2022/11/20 05:22:30;;;;;;;6.20;3.35;;;;;;;3.32;50.51;101929.41;4946656;28;20047;-71
2022/11/20 05:24:59;;;;;;;12.20;3.88;;;;;;;3.25;50.85;101933.19;4946419;28;20055;-71
2022/11/20 05:27:36;;;;;;;9.98;3.83;;;;;;;3.20;51.02;101931.03;4945390;28;20040;-72
2022/11/20 05:30:06;;;;;;;9.07;3.72;;;;;;;3.15;50.97;101943.44;4948293;28;20051;-72
2022/11/20 05:32:36;;;;;;;11.88;4.20;;;;;;;3.09;51.38;101946.44;4947630;28;20051;-74
2022/11/20 05:35:05;;;;;;;7.10;3.65;;;;;;;3.06;51.97;101946.16;4956916;28;20501;-71
2022/11/20 05:37:36;;;;;;;8.35;3.28;;;;;;;3.05;52.71;101939.28;4949140;28;20059;-71
2022/11/20 05:40:05;;;;;;;9.55;3.33;;;;;;;3.04;51.78;101946.81;4944025;28;20051;-69
2022/11/20 05:42:34;;;;;;;9.02;3.58;;;;;;;3.01;51.79;101955.16;4943874;28;20043;-71
2022/11/20 05:45:04;;;;;;;5.50;2.78;;;;;;;2.97;51.85;101954.78;4949873;28;20051;-71
2022/11/20 05:47:39;;;;;;;8.05;3.03;;;;;;;2.91;52.19;101950.97;4943917;28;20047;-71
2022/11/20 05:50:09;;;;;;;8.35;3.55;;;;;;;2.82;52.00;101950.25;4945967;28;20051;-71
2022/11/20 05:52:37;;;;;;;7.15;2.83;;;;;;;2.83;52.94;101958.81;4944190;28;20064;-72
2022/11/20 05:55:07;;;;;;;6.53;3.47;;;;;;;2.80;53.73;101958.56;4949315;28;20467;-71
2022/11/20 05:57:35;;;;;;;7.13;3.30;;;;;;;2.78;53.75;101962.66;4942772;28;20520;-72
2022/11/20 06:00:05;;;;;;;8.20;2.92;;;;;;;2.75;52.48;101960.75;4949204;28;20203;-71
2022/11/20 06:02:38;;;;;;;6.22;3.28;;;;;;;2.70;53.21;101960.41;4946506;28;20069;-72
2022/11/20 06:05:08;;;;;;;12.32;4.22;;;;;;;2.67;53.46;101972.03;4945462;28;20053;-72
2022/11/20 06:07:36;;;;;;;10.57;4.15;;;;;;;2.64;53.64;101969.22;4948997;28;20070;-72
2022/11/20 06:10:07;;;;;;;7.25;3.67;;;;;;;2.49;53.21;101963.75;4944772;28;20177;-71
2022/11/20 06:12:36;;;;;;;10.75;4.18;;;;;;;2.48;53.58;101967.09;4948484;28;20058;-71
2022/11/20 06:15:05;;;;;;;8.82;3.97;;;;;;;2.45;54.14;101971.94;4946789;28;20051;-71
2022/11/20 06:17:34;;;;;;;7.70;3.78;;;;;;;2.42;53.88;101971.69;4942246;28;20069;-71
2022/11/20 06:20:11;;;;;;;11.32;4.18;;;;;;;2.36;54.52;101972.09;4946300;28;20061;-70
2022/11/20 06:22:39;;;;;;;14.73;5.45;;;;;;;2.35;54.74;101979.63;4948459;28;20126;-71
2022/11/20 06:25:08;;;;;;;11.23;4.43;;;;;;;2.30;54.47;101977.56;4942822;28;20059;-71
2022/11/20 06:27:37;;;;;;;14.95;6.03;;;;;;;2.27;55.24;101972.22;4945885;28;20055;-70
2022/11/20 06:30:14;;;;;;;14.25;5.32;;;;;;;2.21;55.00;101975.94;4947260;28;20055;-72
2022/11/20 06:32:43;;;;;;;13.40;5.22;;;;;;;2.16;55.63;101970.44;4940744;28;20054;-71
2022/11/20 06:35:13;;;;;;;13.00;4.60;;;;;;;2.13;55.63;101972.75;4949454;28;20861;-71
2022/11/20 06:37:42;;;;;;;9.30;5.63;;;;;;;2.09;55.52;101963.94;4956353;28;20051;-71
2022/11/20 06:40:17;;;;;;;16.48;6.45;;;;;;;2.06;56.64;101955.13;4947824;28;20671;-71
2022/11/20 06:42:46;;;;;;;9.50;4.38;;;;;;;2.03;56.58;101952.31;4939107;28;20177;-70
2022/11/20 06:45:15;;;;;;;15.02;4.50;;;;;;;2.01;56.34;101951.28;4943337;28;20047;-71
2022/11/20 06:47:43;;;;;;;16.65;5.80;;;;;;;1.97;56.65;101956.91;4946365;28;20529;-71
2022/11/20 06:50:14;;;;;;;13.25;5.13;;;;;;;1.95;55.60;101953.31;4946569;28;20477;-71
2022/11/20 06:52:42;;;;;;;9.02;3.47;;;;;;;1.92;56.64;101958.19;4948133;28;20078;-71
2022/11/20 06:55:11;;;;;;;10.38;4.85;;;;;;;1.89;56.26;101963.94;4946834;28;20047;-72
2022/11/20 06:57:39;;;;;;;8.15;3.47;;;;;;;1.84;56.72;101955.91;4947251;28;20405;-71
2022/11/20 07:00:09;;;;;;;9.07;3.65;;;;;;;1.82;56.30;101965.06;4949722;28;20076;-71
2022/11/20 07:02:39;;;;;;;10.32;4.35;;;;;;;1.79;57.06;101963.94;4947075;28;20047;-71
2022/11/20 07:05:08;;;;;;;9.57;4.13;;;;;;;1.76;57.35;101967.09;4945738;28;20054;-71
2022/11/20 07:07:39;;;;;;;11.82;4.20;;;;;;;1.68;57.26;101957.94;4947002;28;20042;-71
2022/11/20 07:10:08;;;;;;;8.85;3.85;;;;;;;1.73;58.12;101969.41;4947375;28;20518;-71
2022/11/20 07:12:42;;;;;;;9.57;3.65;;;;;;;1.69;58.07;101972.47;4945126;28;20494;-71
2022/11/20 07:15:11;;;;;;;7.57;4.10;;;;;;;1.67;57.11;101976.53;4945868;28;20466;-71
2022/11/20 07:17:39;;;;;;;6.90;3.95;;;;;;;1.64;57.34;101976.28;4945599;28;20592;-72
2022/11/20 07:20:09;;;;;;;8.55;4.38;;;;;;;1.61;57.51;101973.47;4948076;28;20075;-71
2022/11/20 07:22:39;;;;;;;11.00;4.63;;;;;;;1.60;57.65;101989.53;4941489;28;20070;-71
2022/11/20 07:25:10;;;;;;;9.52;3.67;;;;;;;1.56;58.61;101974.72;4948640;28;20048;-72
2022/11/20 07:27:38;;;;;;;10.02;4.03;;;;;;;1.55;58.23;101980.59;4950691;28;20571;-71
2022/11/20 07:30:08;;;;;;;12.98;3.88;;;;;;;1.54;58.84;101981.38;4949563;28;20057;-71
2022/11/20 07:32:37;;;;;;;7.60;3.03;;;;;;;1.52;57.92;101988.00;4952219;28;20054;-71
2022/11/20 07:35:09;;;;;;;12.13;4.10;;;;;;;1.48;57.85;101999.59;4947663;28;20047;-70
2022/11/20 07:37:39;;;;;;;8.40;3.75;;;;;;;1.45;58.24;101990.03;4949691;28;20410;-71
2022/11/20 07:40:08;;;;;;;9.90;3.38;;;;;;;1.44;58.46;101998.44;4950957;28;20714;-71
2022/11/20 07:42:37;;;;;;;9.27;4.07;;;;;;;1.41;59.54;101985.41;4950138;28;20070;-71
2022/11/20 07:45:06;;;;;;;6.93;3.88;;;;;;;1.43;59.75;102000.84;4949541;28;20051;-71
2022/11/20 07:47:38;;;;;;;6.82;3.20;;;;;;;1.41;58.83;102004.94;4958294;28;20055;-71
2022/11/20 07:50:07;;;;;;;6.85;3.03;;;;;;;1.39;60.23;101996.25;4948760;28;20063;-71
2022/11/20 07:52:36;;;;;;;14.55;4.07;;;;;;;1.36;59.96;101996.88;4950829;28;20147;-71
2022/11/20 07:55:07;;;;;;;11.32;3.67;;;;;;;1.35;60.25;102005.31;4950781;28;20066;-70
2022/11/20 07:57:36;;;;;;;7.15;3.88;;;;;;;1.33;60.04;102006.84;4952589;28;20058;-71
2022/11/20 08:00:07;;;;;;;8.13;3.90;;;;;;;1.31;60.03;102007.47;4953726;28;20047;-71
2022/11/20 08:02:40;;;;;;;8.10;3.67;;;;;;;1.28;59.17;101999.53;4948690;28;20285;-71
2022/11/20 08:05:11;;;;;;;11.00;4.23;;;;;;;1.26;59.26;101999.41;4952378;28;20051;-71
2022/11/20 08:07:40;;;;;;;14.38;4.63;;;;;;;1.23;59.78;101994.03;4950060;28;20051;-71
2022/11/20 08:10:13;;;;;;;9.30;4.00;;;;;;;1.10;60.05;101980.97;4949190;28;20066;-71
2022/11/20 08:15:32;;;;;;;12.52;3.35;;;;;;;1.16;60.43;101982.41;4950666;28;20061;-71
2022/11/20 08:18:07;;;;;;;8.63;3.65;;;;;;;1.16;60.96;101986.63;4947072;28;20048;-70
2022/11/20 08:20:38;;;;;;;13.27;3.58;;;;;;;1.15;60.26;101980.63;4949318;28;20059;-71
2022/11/20 08:23:08;;;;;;;9.95;3.40;;;;;;;1.15;60.38;101974.66;4951188;28;20058;-70
2022/11/20 08:25:39;;;;;;;8.48;3.28;;;;;;;1.15;60.64;101979.75;4949204;28;20066;-70
2022/11/20 08:28:09;;;;;;;7.93;3.65;;;;;;;1.13;60.28;101976.16;4950188;28;20062;-71
2022/11/20 08:30:38;;;;;;;8.95;4.32;;;;;;;1.13;60.78;101979.59;4947683;28;20053;-71
2022/11/20 08:33:09;;;;;;;2.90;1.30;;;;;;;1.12;60.90;101976.91;4948676;28;20039;-71
2022/11/20 08:35:38;;;;;;;1.27;1.17;;;;;;;1.09;61.15;101980.09;4946919;28;20048;-72
2022/11/20 08:38:10;;;;;;;1.98;1.40;;;;;;;1.08;60.76;101985.03;4945945;28;20062;-71
2022/11/20 08:40:40;;;;;;;10.18;5.25;;;;;;;1.07;60.60;101984.16;4944865;28;20498;-71
2022/11/20 08:43:09;;;;;;;3.45;1.75;;;;;;;1.07;61.49;101975.63;4945276;28;20131;-71
2022/11/20 08:45:38;;;;;;;5.82;2.50;;;;;;;0.95;61.79;101947.41;4948690;28;20515;-71
2022/11/20 08:48:07;;;;;;;10.65;4.88;;;;;;;1.06;61.46;101968.75;4946769;28;20118;-71
2022/11/20 08:50:36;;;;;;;1.65;0.85;;;;;;;1.07;61.35;101970.53;4947743;28;20047;-70
2022/11/20 08:53:07;;;;;;;11.30;3.28;;;;;;;1.07;61.46;101971.41;4952117;28;20083;-71
2022/11/20 08:55:36;;;;;;;0.45;0.43;;;;;;;1.04;60.90;101972.03;4946034;28;20058;-72
2022/11/20 08:58:08;;;;;;;1.83;1.23;;;;;;;1.04;61.30;101977.13;4952584;28;20046;-71
2022/11/20 09:00:36;;;;;;;0.40;0.40;;;;;;;1.06;60.78;101978.94;4950606;28;20485;-71
2022/11/20 09:03:05;;;;;;;12.45;2.10;;;;;;;1.06;61.22;101974.72;4944312;28;20126;-73
2022/11/20 09:05:34;;;;;;;11.15;3.55;;;;;;;1.06;61.54;101978.94;4949229;28;20054;-70
2022/11/20 09:08:02;;;;;;;7.63;3.25;;;;;;;1.07;60.85;101980.72;4948999;28;20050;-72
2022/11/20 09:10:32;;;;;;;2.38;1.02;;;;;;;1.05;60.88;101967.81;4943142;28;20047;-70
2022/11/20 09:13:02;;;;;;;6.43;3.22;;;;;;;1.03;60.99;101974.44;4947590;28;20239;-71
2022/11/20 09:15:33;;;;;;;2.33;0.93;;;;;;;1.04;61.03;101981.34;4944728;28;20764;-71
2022/11/20 09:18:04;;;;;;;11.43;3.75;;;;;;;1.03;60.56;101969.34;4946098;28;20055;-71
2022/11/20 09:20:33;;;;;;;2.22;1.25;;;;;;;1.02;61.32;101978.66;4948061;28;20048;-70
2022/11/20 09:23:02;;;;;;;4.05;1.02;;;;;;;0.99;60.76;101978.41;4947642;28;20537;-70
2022/11/20 09:25:30;;;;;;;1.77;0.35;;;;;;;0.99;61.39;101987.72;4947921;28;20066;-71
2022/11/20 09:28:00;;;;;;;8.43;2.75;;;;;;;0.93;60.65;101982.94;4942499;28;20055;-71
2022/11/20 09:30:29;;;;;;;3.83;1.23;;;;;;;0.88;60.69;101974.00;4945642;28;20062;-71
2022/11/20 09:32:59;;;;;;;0.65;0.65;;;;;;;0.88;61.13;101979.09;4941421;28;20051;-72
2022/11/20 09:35:28;;;;;;;8.88;3.35;;;;;;;0.86;61.09;101985.72;4939323;28;20575;-71
2022/11/20 09:37:56;;;;;;;0.47;0.47;;;;;;;0.86;61.77;101982.28;4944133;28;20051;-71
2022/11/20 09:40:28;;;;;;;0.22;0.22;;;;;;;0.81;61.73;101982.78;4948139;28;20050;-71
2022/11/20 09:43:00;;;;;;;1.75;1.02;;;;;;;0.79;61.62;101984.28;4943800;28;20051;-71
2022/11/20 09:45:44;;;;;;;4.82;2.40;;;;;;;0.76;62.08;101983.13;4943593;28;20098;-72
2022/11/20 09:48:34;;;;;;;7.63;3.42;;;;;;;0.76;62.33;101988.22;4954002;28;20789;-72
2022/11/20 09:51:11;;;;;;;0.32;0.32;;;;;;;0.74;62.12;101977.91;4948241;28;20057;-72
2022/11/20 09:53:52;;;;;;;7.15;4.32;;;;;;;0.71;62.31;101984.34;4944806;28;20051;-71
2022/11/20 09:56:22;;;;;;;9.25;3.40;;;;;;;0.67;62.72;101980.66;4945950;28;20055;-69
2022/11/20 09:58:53;;;;;;;5.90;2.97;;;;;;;0.67;62.67;101975.56;4946502;28;20070;-71
2022/11/20 10:01:25;;;;;;;7.20;2.97;;;;;;;0.66;62.65;101973.75;4948961;28;20059;-71
2022/11/20 10:04:01;;;;;;;21.15;3.83;;;;;;;0.63;62.53;101976.94;4943940;28;20109;-71
2022/11/20 10:06:33;;;;;;;9.68;2.60;;;;;;;0.58;62.72;101968.00;4944835;28;20051;-71
2022/11/20 10:09:20;;;;;;;12.43;3.90;;;;;;;0.55;62.54;101977.94;4945170;28;20054;-70
2022/11/20 10:11:58;;;;;;;3.30;2.05;;;;;;;0.52;63.32;101980.19;4943915;28;20100;-72
2022/11/20 10:14:37;;;;;;;1.15;0.95;;;;;;;0.50;62.62;101984.22;4947160;28;20086;-72
2022/11/20 10:17:17;;;;;;;5.03;3.00;;;;;;;0.46;63.06;101997.47;4950033;28;20047;-71
2022/11/20 10:20:03;;;;;;;1.95;1.13;;;;;;;0.41;63.05;101988.50;4945603;28;20066;-71
2022/11/20 10:22:46;;;;;;;0.55;0.43;;;;;;;0.40;63.32;101996.91;4945253;28;20095;-71
2022/11/20 10:25:17;;;;;;;5.78;2.70;;;;;;;0.39;63.77;102001.13;4945788;28;20058;-71
2022/11/20 10:28:14;;;;;;;6.25;2.80;;;;;;;0.37;63.75;102007.72;4943415;28;20051;-70
2022/11/20 10:30:45;;;;;;;1.00;0.52;;;;;;;0.35;64.04;101998.16;4948711;28;20126;-71
2022/11/20 10:33:19;;;;;;;4.85;2.40;;;;;;;0.37;64.39;102001.75;4948666;28;20070;-71
2022/11/20 10:36:11;;;;;;;0.20;0.05;;;;;;;0.37;64.72;102006.84;4943168;28;20062;-72
2022/11/20 10:38:49;;;;;;;16.15;2.95;;;;;;;0.35;64.88;102003.25;4945483;28;20058;-71
2022/11/20 10:41:27;;;;;;;0.22;0.22;;;;;;;0.32;64.63;102013.13;4942479;28;20072;-71
2022/11/20 10:44:05;;;;;;;1.48;0.75;;;;;;;0.30;64.72;102017.19;4948247;28;20523;-71
2022/11/20 10:46:41;;;;;;;4.68;2.60;;;;;;;0.28;64.71;102009.44;4945780;28;20417;-71
2022/11/20 10:49:16;;;;;;;6.47;2.70;;;;;;;0.29;65.04;102012.88;4949045;28;20054;-72
2022/11/20 10:51:57;;;;;;;8.40;3.58;;;;;;;0.31;64.82;102011.38;4947342;28;20061;-71
2022/11/20 10:54:38;;;;;;;4.85;2.97;;;;;;;0.31;64.32;102008.81;4948506;28;20699;-71
2022/11/20 10:57:19;;;;;;;4.38;2.83;;;;;;;0.29;64.54;102008.66;4952873;28;20054;-70
2022/11/20 11:00:01;;;;;;;8.70;3.75;;;;;;;0.19;65.09;101985.69;4950930;28;20061;-71
2022/11/20 11:02:36;;;;;;;9.55;3.13;;;;;;;0.31;65.12;102003.72;4949268;28;20054;-71
2022/11/20 11:05:24;;;;;;;6.75;3.15;;;;;;;0.30;65.10;102004.47;4961479;28;20050;-71
2022/11/20 11:07:57;;;;;;;2.25;2.05;;;;;;;0.31;65.20;102001.19;4944925;28;20126;-71
2022/11/20 11:10:34;;;;;;;1.30;1.15;;;;;;;0.32;64.95;102008.97;4960891;28;20054;-72
2022/11/20 11:13:02;;;;;;;1.88;1.40;;;;;;;0.29;65.06;102003.56;4936472;28;20126;-71
2022/11/20 11:15:38;;;;;;;2.40;1.23;;;;;;;0.35;65.39;102008.34;4946680;28;20054;-72
2022/11/20 11:18:10;;;;;;;0.75;0.40;;;;;;;0.34;65.75;102011.63;4945684;28;20548;-72
2022/11/20 11:20:42;;;;;;;5.57;0.93;;;;;;;0.34;65.32;102015.06;4948130;28;20085;-71
2022/11/20 11:23:32;;;;;;;2.17;1.23;;;;;;;0.35;65.94;102023.63;4943350;28;20199;-71
2022/11/20 11:26:02;;;;;;;1.85;1.75;;;;;;;0.35;65.29;102023.63;4940957;28;20046;-72
2022/11/20 11:28:31;;;;;;;1.45;1.35;;;;;;;0.34;65.28;102022.69;4944181;28;20047;-70
2022/11/20 11:31:00;;;;;;;2.55;0.77;;;;;;;0.34;65.99;102026.91;4948311;28;20051;-71
2022/11/20 11:33:30;;;;;;;12.80;2.83;;;;;;;0.34;66.22;102026.91;4945317;28;20055;-71
2022/11/20 11:36:04;;;;;;;2.13;0.95;;;;;;;0.36;66.26;102025.41;4948451;28;20059;-70
2022/11/20 11:38:38;;;;;;;1.35;0.75;;;;;;;0.39;65.68;102033.28;4944958;28;20048;-71
2022/11/20 11:41:09;;;;;;;2.65;0.75;;;;;;;0.41;66.08;102031.78;4950238;28;20059;-72
2022/11/20 11:46:32;;;;;;;0.52;0.10;;;;;;;0.46;65.92;102040.75;4944206;28;20066;-71
2022/11/20 11:49:02;;;;;;;0.68;0.52;;;;;;;0.46;66.32;102033.13;4948525;28;20048;-71
2022/11/20 11:51:38;;;;;;;2.28;0.90;;;;;;;0.50;66.27;102036.81;4945673;28;20051;-71
2022/11/20 11:54:18;;;;;;;2.08;0.55;;;;;;;0.50;66.71;102042.81;4941372;28;20057;-70
2022/11/20 11:56:47;;;;;;;1.80;0.57;;;;;;;0.53;66.10;102032.03;4947139;28;20043;-71
2022/11/20 11:59:24;;;;;;;0.00;0.00;;;;;;;0.55;65.87;102033.94;4943906;28;20755;-71
2022/11/20 12:02:01;;;;;;;1.13;0.57;;;;;;;0.57;65.96;102027.34;4950686;28;20055;-71